CheckWX is a tool to help pilots better visualize weather data.  It is not intended as a substitute for an official pre-flight weather briefing.

12:21:07 UTC

FYWE METAR
Eros Airport
Windhoek, Namibia
Current

21 mins ago

FYWE 221200Z 01008G23KT 300V090 CAVOK 33/M00 Q1025
Observed
Feb-22 @ 12:00 UTC
Wind
  • 010° at 8 KTS
  • Gusting to KTS
Visibility
10,000+ meters
Flight Rules
VFR
Cloud Levels
  • Clear skies
Temperature
33°C / 91°F
Dewpoint
C / 32°F
Humidity
12%
Altimeter
30.27" Hg
Pressure
1024.92 hPa
Previous

1 hour ago

FYWE 221100Z 33005KT CAVOK 31/M00 Q1026
Observed
Feb-22 @ 11:00 UTC
Wind
  • 330° at 5 KTS
Visibility
10,000+ meters
Flight Rules
VFR
Cloud Levels
  • Clear skies
Temperature
31°C / 88°F
Dewpoint
C / 32°F
Humidity
13%
Altimeter
30.3" Hg
Pressure
1025.92 hPa
Previous

2 hours ago

FYWE 221000Z 28004KT 9999 SCT050 29/M00 Q1027
Observed
Feb-22 @ 10:00 UTC
Wind
  • 280° at 4 KTS
Visibility
10,000+ meters
Flight Rules
VFR
Cloud Levels
  • Scattered at 5,000' AGL
Temperature
29°C / 84°F
Dewpoint
C / 32°F
Humidity
15%
Altimeter
30.32" Hg
Pressure
1026.92 hPa